Choice Hotels Intl Inc (CHH) Latest Bloomsberg Price


Mffais Ranking #291 Overall / #3 Industry
Industry: Lodging

Number of Companies: 87 (Ranking #1808 Overall/#7 Industry)
Inflow: $ 50,486 (K) (Ranking #1306 Overall/#7 Industry)
Outflow: $ -21,210 (K)
Mffais Flow: $ 29,276 (K) (Ranking #291 Overall/#3 Industry)


Receive a FREE weekly executive review of stocks moving into the top 10, taking the top industy spot or moving up within their industry. Sent directly to your Inbox every Saturday. Sign up today and get last week's review immediately sent to you.

We value and respect your privacy. Please read our Terms and Conditions which states our firm commitment to your privacy. Your email address will not be shared with a third party, nor will it be sold or used for purposes other than subscription for the weekly review.

Owner CPOR Shares Action Qty Chg Invested (K) Total Current Value (K)
Echo Street Capital Management Llc 2016-09-30 1,325,207 Added More 452,141 $ 21,942 $ 64,312
Atlanta Capital Management Co L L C 2016-09-30 935,484 Added More 172,695 $ 8,380 $ 45,399
Secor Capital Advisors Lp 2016-09-30 78,403 New Holding 78,403 $ 3,804 $ 3,804
Dimensional Fund Advisors Lp 2016-09-30 900,731 Added More 42,353 $ 2,055 $ 43,712
Ahl Partners Llp 2016-09-30 43,619 Added More 36,627 $ 1,777 $ 2,116
Babson Capital Management Llc 2016-09-30 29,700 New Holding 29,700 $ 1,441 $ 1,441
Marshall Wace Llp 2016-09-30 28,452 New Holding 28,452 $ 1,380 $ 1,380
Century Capital Management Llc 2016-09-30 70,701 Added More 25,391 $ 1,232 $ 3,431
Highbridge Capital Management Llc 2016-09-30 22,765 New Holding 22,765 $ 1,104 $ 1,104
Northern Trust Corp 2016-09-30 229,814 Added More 19,688 $ 955 $ 11,152
Crawford Investment Counsel Inc 2016-09-30 50,490 Added More 14,410 $ 699 $ 2,450
Bluecrest Capital Management Ltd 2016-09-30 13,725 New Holding 13,725 $ 666 $ 666
Guggenheim Capital Llc 2016-09-30 31,683 Added More 10,799 $ 524 $ 1,537
Verition Fund Management Llc 2016-09-30 15,707 Added More 10,355 $ 502 $ 762
Gotham Asset Management Llc 2016-09-30 6,654 New Holding 6,654 $ 322 $ 322
Gsa Capital Partners Llp 2016-09-30 6,587 New Holding 6,587 $ 319 $ 319
Quadrature Capital Ltd 2016-09-30 6,105 New Holding 6,105 $ 296 $ 296
Dynamic Technology Lab Private Ltd 2016-09-30 5,955 New Holding 5,955 $ 288 $ 288
Soros Fund Management Llc 2016-09-30 5,760 New Holding 5,760 $ 279 $ 279
Global X Management Co Llc 2016-09-30 5,744 New Holding 5,744 $ 278 $ 278
Fenimore Asset Management Inc 2016-09-30 158,595 Added More 5,362 $ 260 $ 7,696
Bayesian Capital Management Lp 2016-09-30 5,300 New Holding 5,300 $ 257 $ 257
Peak6 Investments L P 2016-09-30 5,157 New Holding 5,157 $ 250 $ 250
Zebra Capital Management Llc 2016-09-30 36,705 Added More 4,780 $ 231 $ 1,781
Blackrock Inc 2016-09-30 16,837 Added More 4,724 $ 229 $ 817
Cubist Systematic Strategies Llc 2016-09-30 4,025 New Holding 4,025 $ 195 $ 195
Teachers Advisors Inc 2016-09-30 63,234 Added More 3,458 $ 167 $ 3,068
Teachers Retirement System Of The State Of Kentucky 2016-09-30 56,255 Added More 3,078 $ 149 $ 2,730
Fdx Advisors Inc 2016-09-30 10,578 Added More 2,488 $ 120 $ 513
Pacad Investment Ltd 2016-09-30 2,100 Added More 1,550 $ 75 $ 101
Point72 Asia Hong Kong Ltd 2016-09-30 1,200 New Holding 1,200 $ 58 $ 58
California State Teachers Retirement System 2016-09-30 71,070 Added More 800 $ 38 $ 3,449
Walleye Trading Llc 2016-09-30 981 Added More 799 $ 38 $ 47
Jensen Investment Management Inc 2016-09-30 9,520 Added More 690 $ 33 $ 462
Acrospire Investment Management Llc 2016-09-30 600 New Holding 600 $ 29 $ 29
Pacer Advisors Inc 2016-09-30 5,001 Added More 420 $ 20 $ 242
Aperio Group Llc 2016-09-30 7,450 Added More 385 $ 18 $ 361
Quantbot Technologies Lp 2016-09-30 349 New Holding 349 $ 16 $ 16
Tower Research Capital Llc Trc 2016-09-30 290 New Holding 290 $ 14 $ 14
Zurcher Kantonalbank Zurich Cantonalbank 2016-09-30 1,454 Added More 139 $ 6 $ 70
Blackrock Investment Management Llc 2016-09-30 14,018 Added More 135 $ 6 $ 680
Penserra Capital Management Llc 2016-09-30 296 Added More 118 $ 5 $ 14
Us Bancorp De 2016-09-30 2,137 Added More 66 $ 3 $ 103
Apriem Advisors 2016-09-30 59 New Holding 59 $ 2 $ 2
Pnc Financial Services Group Inc 2016-09-30 1,278 Added More 26 $ 1 $ 62
Ladenburg Thalmann Financial Services Inc 2016-09-30 2,603 Added More 6 $ 0 $ 126
Tarbox Group Inc 2016-09-30 21 Added More 3 $ 0 $ 1
Utah Retirement Systems 2016-09-30 5,912 No Change 0 $ 0 $ 286
Spark Investment Management Llc 2016-09-30 12,900 No Change 0 $ 0 $ 626
Finemark National Bank Trust 2016-09-30 29 No Change 0 $ 0 $ 1
Carroll Financial Associates Inc 2016-09-30 100 No Change 0 $ 0 $ 4
Creative Planning 2016-09-30 800 No Change 0 $ 0 $ 38
Advisory Services Network Llc 2016-09-30 100 No Change 0 $ 0 $ 4
Winfield Associates Inc 2016-09-30 30 No Change 0 $ 0 $ 1
Cornerstone Advisors Inc 2016-09-30 21 No Change 0 $ 0 $ 1
Patten Group Inc 2016-09-30 25 No Change 0 $ 0 $ 1
Advisor Group Inc 2016-09-30 7 No Change 0 $ 0 $ 0
Pinnacle Advisory Group Inc 2016-09-30 7,063 No Change 0 $ 0 $ 342
Chevy Chase Trust Holdings Inc 2016-09-30 11,000 No Change 0 $ 0 $ 533
Sandy Spring Bank 2016-09-30 300 No Change 0 $ 0 $ 14
Nisa Investment Advisors Llc 2016-09-30 4,500 No Change 0 $ 0 $ 218
Connable Office Inc 2016-09-30 6,800 No Change 0 $ 0 $ 330
Oppenheimer Co Inc 2016-09-30 5,688 No Change 0 $ 0 $ 276
Legal General Group Plc 2016-09-30 3,016 No Change 0 $ 0 $ 146
American International Group Inc 2016-09-30 854 Sold Some -50 $ -2 $ 41
First Quadrant L P Ca 2016-09-30 0 Sold All -163 $ -7 $ 0
Sei Investments Co 2016-09-30 23,424 Sold Some -167 $ -8 $ 1,136
Horizon Kinetics Llc 2016-09-30 8,791 Sold Some -359 $ -17 $ 426
Johnson Financial Group Inc 2016-09-30 350 Sold Some -400 $ -19 $ 16
Checchi Capital Advisers Llc 2016-09-30 0 Sold All -494 $ -23 $ 0
I G Investment Management Ltd 2016-09-30 0 Sold All -787 $ -38 $ 0
Rhumbline Advisers 2016-09-30 38,700 Sold Some -833 $ -40 $ 1,878
Fuller Thaler Asset Management Inc 2016-09-30 700 Sold Some -1,800 $ -87 $ 33
Swiss National Bank 2016-09-30 59,467 Sold Some -2,200 $ -106 $ 2,885
Btim Corp 2016-09-30 679,095 Sold Some -2,231 $ -108 $ 32,956
Cutler Group Lp 2016-09-30 613 Sold Some -4,375 $ -212 $ 29
Teacher Retirement System Of Texas 2016-09-30 0 Sold All -5,147 $ -249 $ 0
Princeton Alpha Management Lp 2016-09-30 0 Sold All -5,319 $ -258 $ 0
Emerald Acquisition Ltd 2016-09-30 24,431 Sold Some -5,372 $ -260 $ 1,185
New York State Common Retirement Fund 2016-09-30 192,500 Sold Some -5,600 $ -271 $ 9,342
Parametric Portfolio Associates Llc 2016-09-30 79,664 Sold Some -10,402 $ -504 $ 3,866
Omers Administration Corp 2016-09-30 0 Sold All -11,100 $ -538 $ 0
Jacobs Levy Equity Management Inc 2016-09-30 4,880 Sold Some -14,730 $ -714 $ 236
Panagora Asset Management Inc 2016-09-30 31,993 Sold Some -17,548 $ -851 $ 1,552
Capital Fund Management S A 2016-09-30 8,400 Sold Some -23,300 $ -1,130 $ 407
Td Asset Management Inc 2016-09-30 66,587 Sold Some -33,413 $ -1,621 $ 3,231
Columbia Wanger Asset Management Llc 2016-09-30 634,056 Sold Some -291,265 $ -14,135 $ 30,770